UPSVAC Airport Information Service

Portland International Airport

ICAO: KPDX Country: United States
Latitude: 45.5887 Longitude: -122.597
Latest Arrival : UPS2625 (KSDF-KPDX) Latest Departure : UPS2338 (KPDX-KSDF)


WX CaptureLIVE
Data provided by noaa.gov | Fetched at 23:04:27

METAR : KPDX 112153Z 29011G15KT 10SM FEW050 22/04 A3013 RMK AO2 SLP201 T02220044

TAF : KPDX 112059Z 1121/1218 32009G15KT P6SM SCT250 FM120900 VRB03KT P6SM OVC150


Runway Data for KPDX
Data provided by openaviationdata.com

Runway ID Mag Var Hdg Length Elevation Surface ILS Freq ILS Id ILS Slope
3 18 26° 6995 ft 30 ft Asphalt -- -- --
10L 18 100° 7989 ft 30 ft Asphalt 111.3 IVDG 3
10R 18 100° 10985 ft 30 ft Asphalt 110.5 IPDX 3
21 18 206° 6995 ft 30 ft Asphalt 108.9 IGPO 0
28L 18 280° 10985 ft 30 ft Asphalt 110.5 IJMJ 3
28R 18 280° 7989 ft 30 ft Asphalt 111.3 IIAP 3

Portland International Airport, United States
Use only for reference purposes



Not for navigational purposes.